Terminal Aerodrome Forecast
Issued by NWS Shreveport, LA

Home | Current Version | Previous Version | Text Only | Print | Product List | Glossary On
Versions: 1 2 3 4 5 6 7 8 9 10 11 12 13 14
000
FTUS44 KSHV 101700 RRA
TAFTYR
TAF
KTYR 101743Z 1018/1118 22008KT P6SM SCT250
     FM102000 19008KT P6SM SCT040 SCT150
     FM110000 19004KT P6SM SCT045
     FM110400 17007KT P6SM SCT045 BKN060=

USA.gov is the U.S. government's official web portal to all federal, state and local government web resources and services.